Time;durP1;ratioP1;P1;durP2;ratioP2;P2;SDS_P1;SDS_P2;PMS_P1;PMS_P2;Temp;Humidity;BMP_temperature;BMP_pressure;BME280_temperature;BME280_humidity;BME280_pressure;Samples;Min_cycle;Max_cycle;Signal;HPM_P1;HPM_P2
2021/01/17 00:00:44;;;;;;;38.33;14.73;;;-2.40;99.90;;;;;;8327275;28;20026;-73
2021/01/17 00:04:45;;;;;;;33.15;14.05;;;-2.50;99.90;;;;;;8326882;28;20017;-74
2021/01/17 00:08:45;;;;;;;20.60;9.25;;;-2.40;99.90;;;;;;8329373;28;20041;-73
2021/01/17 00:12:47;;;;;;;37.00;16.95;;;-2.40;99.90;;;;;;8360434;28;20173;-73
2021/01/17 00:16:48;;;;;;;51.53;20.05;;;-2.40;99.90;;;;;;8328351;28;20026;-73
2021/01/17 00:20:49;;;;;;;25.65;10.88;;;-2.40;99.90;;;;;;8360376;28;20064;-74
2021/01/17 00:24:49;;;;;;;35.08;16.30;;;-2.40;99.90;;;;;;8326455;28;20063;-74
2021/01/17 00:28:50;;;;;;;27.75;11.40;;;-2.40;99.90;;;;;;8328272;28;20041;-73
2021/01/17 00:32:52;;;;;;;46.00;17.98;;;-2.40;99.90;;;;;;8360375;28;20079;-74
2021/01/17 00:36:52;;;;;;;37.13;15.50;;;-2.40;99.90;;;;;;8327850;28;20037;-73
2021/01/17 00:40:53;;;;;;;37.70;16.00;;;-2.30;99.90;;;;;;8358795;28;20087;-73
2021/01/17 00:44:53;;;;;;;33.17;15.55;;;-2.20;99.90;;;;;;8326888;28;20060;-74
2021/01/17 00:48:54;;;;;;;37.13;15.40;;;-2.20;99.90;;;;;;8360142;28;20029;-74
2021/01/17 00:52:56;;;;;;;32.20;14.40;;;-2.10;99.90;;;;;;8359207;28;20022;-74
2021/01/17 00:57:02;;;;;;;37.00;14.90;;;-2.10;99.90;;;;;;8359446;28;20441;-74
2021/01/17 01:01:02;;;;;;;34.50;14.52;;;-2.10;99.90;;;;;;8327624;28;20099;-74
2021/01/17 01:05:03;;;;;;;31.45;14.68;;;-2.10;99.90;;;;;;8327510;28;20074;-75
2021/01/17 01:09:09;;;;;;;28.25;12.90;;;-2.10;99.90;;;;;;8359407;28;20515;-74
2021/01/17 01:13:09;;;;;;;25.92;11.25;;;-2.00;99.90;;;;;;8327084;28;20156;-74
2021/01/17 01:17:10;;;;;;;15.43;7.30;;;-1.80;99.90;;;;;;8331482;28;20054;-74
2021/01/17 01:21:13;;;;;;;21.05;9.27;;;-1.80;99.90;;;;;;8358171;28;20017;-74
2021/01/17 01:25:14;;;;;;;26.55;11.77;;;-1.70;99.90;;;;;;8358504;28;20025;-69
2021/01/17 01:29:15;;;;;;;21.67;10.05;;;-1.80;99.90;;;;;;8357754;28;20032;-69
2021/01/17 01:33:15;;;;;;;18.45;8.57;;;-1.70;99.90;;;;;;8358433;28;20534;-68
2021/01/17 01:37:16;;;;;;;20.58;10.40;;;-1.60;99.90;;;;;;8358820;28;20025;-69
2021/01/17 01:41:17;;;;;;;20.48;9.50;;;-1.70;99.90;;;;;;8358538;28;20025;-69
2021/01/17 01:45:18;;;;;;;21.48;10.18;;;-1.70;99.90;;;;;;8390967;28;20068;-69
2021/01/17 01:49:18;;;;;;;18.90;10.02;;;-1.60;99.90;;;;;;8358642;28;20071;-69
2021/01/17 01:53:19;;;;;;;22.60;11.27;;;-1.50;99.90;;;;;;8358459;28;20078;-69
2021/01/17 01:57:20;;;;;;;25.40;11.63;;;-1.50;99.90;;;;;;8358361;28;20501;-69
2021/01/17 02:01:21;;;;;;;25.05;11.57;;;-1.60;99.90;;;;;;8357947;28;20021;-69
2021/01/17 02:05:22;;;;;;;28.67;10.80;;;-1.70;99.90;;;;;;8357229;28;20070;-69
2021/01/17 02:09:26;;;;;;;23.88;11.52;;;-1.70;99.90;;;;;;8355146;28;20024;-69
2021/01/17 02:13:40;;;;;;;19.00;8.98;;;-1.80;99.90;;;;;;8336925;28;20020;-69
2021/01/17 02:17:42;;;;;;;20.98;10.52;;;-1.70;99.90;;;;;;8323222;28;20544;-69
2021/01/17 02:21:56;;;;;;;24.90;10.52;;;-1.70;99.90;;;;;;8322039;28;20024;-69
2021/01/17 02:25:56;;;;;;;21.90;9.93;;;-1.60;99.90;;;;;;8324110;28;20064;-69
2021/01/17 02:30:00;;;;;;;15.80;8.02;;;-1.60;99.90;;;;;;8324663;28;20037;-69
2021/01/17 02:34:03;;;;;;;23.95;11.85;;;-1.60;99.90;;;;;;8324743;28;20455;-70
2021/01/17 02:38:28;;;;;;;19.77;9.57;;;-1.60;99.90;;;;;;8324615;28;20052;-70
2021/01/17 02:42:31;;;;;;;21.35;10.48;;;-1.50;99.90;;;;;;8336198;28;20021;-69
2021/01/17 02:46:31;;;;;;;20.13;10.10;;;-1.60;99.90;;;;;;8357622;28;20550;-70
2021/01/17 02:50:32;;;;;;;18.42;9.63;;;-1.50;99.90;;;;;;8357408;28;20040;-69
2021/01/17 02:54:39;;;;;;;23.52;11.43;;;-1.50;99.90;;;;;;8357553;28;20029;-69
2021/01/17 02:58:42;;;;;;;19.45;9.75;;;-1.40;99.90;;;;;;8357404;28;20483;-69
2021/01/17 03:02:45;;;;;;;17.70;9.10;;;-1.50;99.90;;;;;;8357151;28;20394;-69
2021/01/17 03:06:47;;;;;;;18.38;9.43;;;-1.50;99.90;;;;;;8357368;28;20021;-69
2021/01/17 03:10:48;;;;;;;20.60;10.95;;;-1.40;99.90;;;;;;8357074;28;20025;-69
2021/01/17 03:14:50;;;;;;;18.15;9.23;;;-1.40;99.90;;;;;;8326427;28;20048;-69
2021/01/17 03:18:51;;;;;;;17.55;8.75;;;-1.30;99.90;;;;;;8324486;28;20029;-69
2021/01/17 03:22:51;;;;;;;18.77;8.90;;;-1.20;99.90;;;;;;8322658;28;20504;-69
2021/01/17 03:26:52;;;;;;;17.20;8.98;;;-1.10;99.90;;;;;;8322756;28;20033;-69
2021/01/17 03:30:52;;;;;;;15.65;8.10;;;-1.10;99.90;;;;;;8322887;28;20636;-69
2021/01/17 03:34:53;;;;;;;18.75;9.52;;;-1.10;99.90;;;;;;8326441;28;20021;-69
2021/01/17 03:38:54;;;;;;;19.33;9.75;;;-1.10;99.90;;;;;;8328955;28;20025;-69
2021/01/17 03:42:54;;;;;;;14.45;8.52;;;-1.10;99.90;;;;;;8343432;28;20395;-69
2021/01/17 03:46:55;;;;;;;20.58;10.23;;;-1.10;99.90;;;;;;8362248;28;20577;-69
2021/01/17 03:50:56;;;;;;;17.45;8.45;;;-1.20;99.90;;;;;;8361472;28;20029;-69
2021/01/17 03:54:56;;;;;;;20.17;9.77;;;-1.20;99.90;;;;;;8361257;28;20021;-69
2021/01/17 03:58:57;;;;;;;19.77;9.52;;;-1.10;99.90;;;;;;8361146;28;20029;-69
2021/01/17 04:02:57;;;;;;;18.85;8.80;;;-1.10;99.90;;;;;;8360590;28;20601;-69
2021/01/17 04:06:58;;;;;;;18.42;10.27;;;-1.20;99.90;;;;;;8361393;28;20039;-69
2021/01/17 04:10:58;;;;;;;19.25;9.70;;;-1.20;99.90;;;;;;8360355;28;20096;-69
2021/01/17 04:14:59;;;;;;;18.23;9.52;;;-1.10;99.90;;;;;;8328463;28;20041;-69
2021/01/17 04:18:59;;;;;;;20.10;10.52;;;-1.00;99.90;;;;;;8327597;28;20026;-70
2021/01/17 04:23:03;;;;;;;15.55;7.82;;;-1.00;99.90;;;;;;8327098;28;20057;-69
2021/01/17 04:27:04;;;;;;;21.73;10.73;;;-1.00;99.90;;;;;;8328532;28;20467;-70
2021/01/17 04:31:04;;;;;;;15.85;8.73;;;-1.00;99.90;;;;;;8328486;28;20030;-69
2021/01/17 04:35:06;;;;;;;18.10;8.98;;;-1.10;99.90;;;;;;8327917;28;20037;-69
2021/01/17 04:39:06;;;;;;;22.00;10.52;;;-1.20;99.90;;;;;;8327105;28;20602;-69
2021/01/17 04:43:19;;;;;;;20.65;9.65;;;-1.10;99.90;;;;;;8324810;28;20033;-69
2021/01/17 04:47:21;;;;;;;19.00;10.40;;;-1.10;99.90;;;;;;8326569;28;20026;-70
2021/01/17 04:51:25;;;;;;;21.20;10.63;;;-1.10;99.90;;;;;;8326321;28;20029;-69
2021/01/17 04:55:26;;;;;;;20.13;10.75;;;-1.00;99.90;;;;;;8326776;28;20465;-69
2021/01/17 04:59:36;;;;;;;20.65;9.60;;;-1.10;99.90;;;;;;8327771;28;20480;-70
2021/01/17 05:03:52;;;;;;;;;;;-1.10;99.90;;;;;;8360312;28;20025;-69
2021/01/17 05:08:17;;;;;;;16.02;8.45;;;-1.00;99.90;;;;;;8327537;28;19912;-70
2021/01/17 05:12:24;;;;;;;21.92;11.07;;;-1.10;99.90;;;;;;8336888;28;20064;-70
2021/01/17 05:16:30;;;;;;;18.17;9.75;;;-1.20;99.90;;;;;;8359928;28;20484;-70
2021/01/17 05:20:31;;;;;;;18.27;9.98;;;-1.00;99.90;;;;;;8359991;28;20067;-69
2021/01/17 05:24:32;;;;;;;16.58;8.27;;;-1.00;99.90;;;;;;8359612;28;20610;-70
2021/01/17 05:28:33;;;;;;;20.02;10.38;;;-1.00;99.90;;;;;;8359981;28;20418;-70
2021/01/17 05:32:34;;;;;;;19.35;10.10;;;-1.00;99.90;;;;;;8359442;28;20017;-70
2021/01/17 05:36:34;;;;;;;16.70;8.52;;;-1.00;99.90;;;;;;8359544;28;20025;-70
2021/01/17 05:40:35;;;;;;;21.35;11.40;;;-0.90;99.90;;;;;;8359299;28;20017;-70
2021/01/17 05:44:35;;;;;;;18.85;9.82;;;-1.00;99.90;;;;;;8329102;28;20026;-71
2021/01/17 05:48:36;;;;;;;17.48;9.65;;;-1.10;99.90;;;;;;8326354;28;20369;-70
2021/01/17 05:52:37;;;;;;;21.33;10.70;;;-1.10;99.90;;;;;;8326106;28;20504;-70
2021/01/17 05:56:37;;;;;;;17.42;9.82;;;-1.00;99.90;;;;;;8325051;28;20036;-70
2021/01/17 06:00:38;;;;;;;17.73;9.68;;;-1.00;99.90;;;;;;8324488;28;20025;-70
2021/01/17 06:04:41;;;;;;;20.30;9.93;;;-0.80;99.90;;;;;;8325236;28;20013;-70
2021/01/17 06:08:44;;;;;;;19.80;10.10;;;-0.80;99.90;;;;;;8357635;28;20033;-70
2021/01/17 06:12:51;;;;;;;19.10;9.98;;;-0.90;99.90;;;;;;8346028;28;20427;-70
2021/01/17 06:17:01;;;;;;;20.35;10.75;;;-0.90;99.90;;;;;;8357069;28;20032;-70
2021/01/17 06:21:02;;;;;;;23.10;10.50;;;-1.10;99.90;;;;;;8357927;28;20021;-70
2021/01/17 06:25:05;;;;;;;17.70;9.85;;;-1.10;99.90;;;;;;8358462;28;20070;-70
2021/01/17 06:29:08;;;;;;;18.95;9.93;;;-0.80;99.90;;;;;;8356929;28;20028;-70
2021/01/17 06:33:21;;;;;;;18.02;10.25;;;-0.80;99.90;;;;;;8357706;28;20036;-70
2021/01/17 06:37:28;;;;;;;17.13;9.90;;;-0.80;99.90;;;;;;8358029;28;20112;-70
2021/01/17 06:41:38;;;;;;;19.05;10.27;;;-1.00;99.90;;;;;;8356611;28;20040;-70
2021/01/17 06:45:43;;;;;;;17.52;8.98;;;-0.80;99.90;;;;;;8356337;28;20029;-70
2021/01/17 06:49:44;;;;;;;18.33;9.75;;;-0.90;99.90;;;;;;8355357;28;20067;-70
2021/01/17 06:53:55;;;;;;;17.35;9.73;;;-0.90;99.90;;;;;;8356840;28;20476;-72
2021/01/17 06:57:56;;;;;;;19.88;9.55;;;-0.90;99.90;;;;;;8354350;28;20047;-70
2021/01/17 07:02:17;;;;;;;16.70;9.70;;;-0.80;99.90;;;;;;8355775;28;20074;-70
2021/01/17 07:06:39;;;;;;;17.08;9.07;;;-0.80;99.90;;;;;;8354206;28;20024;-70
2021/01/17 07:10:41;;;;;;;17.05;9.18;;;-0.70;99.90;;;;;;8361763;28;20104;-70
2021/01/17 07:14:45;;;;;;;20.10;10.43;;;-0.70;99.90;;;;;;8361184;28;20484;-71
2021/01/17 07:18:50;;;;;;;15.55;9.18;;;-0.90;99.90;;;;;;8362310;28;20574;-70
2021/01/17 07:22:52;;;;;;;19.08;10.05;;;-0.80;99.90;;;;;;8362645;28;20052;-70
2021/01/17 07:27:13;;;;;;;16.10;9.60;;;-0.80;99.90;;;;;;8363305;28;20028;-70
2021/01/17 07:31:18;;;;;;;15.30;9.02;;;-0.40;99.90;;;;;;8363436;28;20017;-70
2021/01/17 07:35:24;;;;;;;17.27;9.23;;;-0.40;99.90;;;;;;8362615;28;20025;-70
2021/01/17 07:39:31;;;;;;;17.48;9.68;;;-0.50;99.90;;;;;;8359701;28;20053;-71
2021/01/17 07:43:41;;;;;;;16.55;9.63;;;-0.50;99.90;;;;;;8363455;28;20066;-70
2021/01/17 07:47:44;;;;;;;17.40;9.20;;;-0.20;99.90;;;;;;8360432;28;20400;-70
2021/01/17 07:51:45;;;;;;;16.40;9.75;;;0.00;99.90;;;;;;8362039;28;20095;-70
2021/01/17 07:55:48;;;;;;;17.50;9.25;;;0.10;99.90;;;;;;8361445;28;20021;-74
2021/01/17 07:59:49;;;;;;;18.00;9.48;;;0.00;99.90;;;;;;8360822;28;20036;-72
2021/01/17 08:03:50;;;;;;;17.73;9.70;;;-0.10;99.90;;;;;;8360141;28;20321;-73
2021/01/17 08:07:51;;;;;;;17.63;9.40;;;-0.10;99.90;;;;;;8362021;28;20745;-72
2021/01/17 08:11:56;;;;;;;17.17;9.93;;;0.00;99.90;;;;;;8360101;28;20029;-73
2021/01/17 08:16:10;;;;;;;17.90;10.07;;;0.10;99.90;;;;;;8354072;28;20479;-73
2021/01/17 08:20:20;;;;;;;17.88;10.00;;;0.40;99.90;;;;;;8358430;28;20029;-72
2021/01/17 08:24:21;;;;;;;;;;;0.40;99.90;;;;;;8357450;28;20025;-72
2021/01/17 08:28:29;;;;;;;19.55;10.30;;;0.60;99.90;;;;;;8361491;28;19921;-73
2021/01/17 08:32:38;;;;;;;17.83;10.23;;;0.80;99.90;;;;;;8358469;28;20047;-73
2021/01/17 08:36:40;;;;;;;18.15;10.38;;;0.80;99.90;;;;;;8360035;28;20032;-74
2021/01/17 08:40:44;;;;;;;22.55;12.32;;;1.00;99.90;;;;;;8360394;28;20029;-73
2021/01/17 08:44:45;;;;;;;19.33;10.48;;;1.00;99.90;;;;;;8357557;28;20028;-73
2021/01/17 08:48:49;;;;;;;18.13;10.32;;;1.00;99.90;;;;;;8356998;28;20120;-73
2021/01/17 08:52:50;;;;;;;18.48;10.68;;;1.10;99.90;;;;;;8359231;28;20106;-73
2021/01/17 08:56:51;;;;;;;17.15;9.43;;;1.30;99.90;;;;;;8358273;28;20087;-73
2021/01/17 09:00:51;;;;;;;17.30;9.93;;;1.50;99.90;;;;;;8358840;28;20036;-73
2021/01/17 09:04:54;;;;;;;16.88;9.55;;;1.70;99.90;;;;;;8357563;28;20013;-73
2021/01/17 09:08:57;;;;;;;15.85;9.85;;;1.80;99.90;;;;;;8358582;28;20050;-73
2021/01/17 09:12:58;;;;;;;16.35;9.52;;;2.00;99.90;;;;;;8352254;28;20060;-74
2021/01/17 09:17:06;;;;;;;15.73;9.02;;;2.00;99.90;;;;;;8359194;28;20411;-73
2021/01/17 09:21:07;;;;;;;14.80;9.05;;;2.20;99.90;;;;;;8358621;28;20029;-73
2021/01/17 09:25:10;;;;;;;14.60;8.82;;;2.40;99.90;;;;;;8354644;28;20471;-73
2021/01/17 09:29:25;;;;;;;15.55;9.00;;;2.40;99.90;;;;;;8357261;28;20099;-70
2021/01/17 09:33:28;;;;;;;14.35;8.68;;;2.30;99.90;;;;;;8360462;28;20415;-70
2021/01/17 09:37:33;;;;;;;27.15;16.88;;;2.40;99.90;;;;;;8373389;28;20024;-70
2021/01/17 09:41:34;;;;;;;14.60;8.88;;;2.90;99.90;;;;;;8363204;28;20043;-73
2021/01/17 09:45:35;;;;;;;13.68;8.30;;;2.90;99.90;;;;;;8351810;28;20037;-73
2021/01/17 09:49:36;;;;;;;13.57;8.40;;;3.10;99.90;;;;;;8350299;28;20563;-75
2021/01/17 09:53:37;;;;;;;12.13;7.72;;;3.40;99.90;;;;;;8352968;28;20024;-74
2021/01/17 09:57:39;;;;;;;10.80;6.90;;;3.50;99.90;;;;;;8354473;28;20450;-73
2021/01/17 10:01:41;;;;;;;10.98;6.97;;;3.40;99.90;;;;;;8355388;28;20123;-74
2021/01/17 10:05:44;;;;;;;12.50;7.15;;;3.40;99.90;;;;;;8359847;28;20033;-74
2021/01/17 10:09:45;;;;;;;12.48;6.85;;;3.30;99.90;;;;;;8348477;28;20025;-74
2021/01/17 10:13:49;;;;;;;10.73;7.28;;;3.40;99.90;;;;;;8354990;28;20035;-76
2021/01/17 10:17:50;;;;;;;11.02;6.90;;;3.70;99.90;;;;;;8359244;28;20044;-75
2021/01/17 10:21:51;;;;;;;11.65;7.30;;;4.10;99.90;;;;;;8354852;28;20021;-73
2021/01/17 10:25:51;;;;;;;11.25;7.03;;;3.90;99.90;;;;;;8353984;28;20510;-75
2021/01/17 10:29:52;;;;;;;11.48;7.40;;;4.10;99.90;;;;;;8354444;28;20498;-75
2021/01/17 10:33:56;;;;;;;11.50;7.57;;;4.20;99.90;;;;;;8353545;28;20114;-74
2021/01/17 10:37:57;;;;;;;12.13;7.15;;;4.00;99.90;;;;;;8342879;28;20037;-74
2021/01/17 10:42:04;;;;;;;11.68;6.93;;;3.80;99.90;;;;;;8348995;28;20032;-73
2021/01/17 10:46:15;;;;;;;13.25;8.02;;;3.50;99.90;;;;;;8365249;28;20040;-73
2021/01/17 10:50:21;;;;;;;10.80;6.88;;;3.30;99.90;;;;;;8365218;28;20032;-74
2021/01/17 10:54:24;;;;;;;12.02;7.38;;;3.20;99.90;;;;;;8363437;28;20514;-75
2021/01/17 10:58:35;;;;;;;12.65;7.95;;;3.50;99.90;;;;;;8369365;28;20063;-74
2021/01/17 11:02:35;;;;;;;10.60;7.15;;;3.90;99.90;;;;;;8387580;28;20025;-74
2021/01/17 11:06:37;;;;;;;12.43;6.93;;;3.90;99.90;;;;;;8381083;28;20033;-74
2021/01/17 11:10:37;;;;;;;9.88;5.95;;;4.40;99.90;;;;;;8367088;28;20028;-74
2021/01/17 11:14:38;;;;;;;9.98;6.20;;;4.70;99.90;;;;;;8338035;28;20638;-74
2021/01/17 11:18:47;;;;;;;9.02;6.20;;;4.40;99.90;;;;;;8340829;28;20471;-75
2021/01/17 11:22:47;;;;;;;8.27;5.68;;;4.10;99.90;;;;;;8365956;28;20021;-74
2021/01/17 11:26:49;;;;;;;10.27;6.20;;;4.00;99.90;;;;;;8366472;28;20103;-75
2021/01/17 11:30:49;;;;;;;9.05;5.80;;;3.80;99.90;;;;;;8358872;28;20029;-76
2021/01/17 11:34:50;;;;;;;10.82;7.00;;;3.70;99.90;;;;;;8365768;28;20047;-75
2021/01/17 11:38:58;;;;;;;10.95;7.10;;;3.70;99.90;;;;;;8367612;28;20024;-74
2021/01/17 11:43:07;;;;;;;11.13;7.00;;;4.20;99.90;;;;;;8366259;28;20047;-75
2021/01/17 11:47:18;;;;;;;14.50;8.65;;;4.30;99.90;;;;;;8366053;28;20052;-77
2021/01/17 11:51:24;;;;;;;15.52;9.15;;;4.00;99.90;;;;;;8359544;28;20078;-77
2021/01/17 11:55:24;;;;;;;13.10;8.23;;;3.70;99.90;;;;;;8355956;28;20029;-76
2021/01/17 11:59:29;;;;;;;16.40;10.18;;;3.60;99.90;;;;;;8348230;28;20083;-75
2021/01/17 12:03:32;;;;;;;12.80;7.53;;;3.90;99.90;;;;;;8355835;28;20067;-77
2021/01/17 12:07:34;;;;;;;11.27;7.25;;;3.90;99.90;;;;;;8360636;28;20036;-76
2021/01/17 12:11:46;;;;;;;13.65;9.18;;;3.70;99.90;;;;;;8354207;28;20114;-77
2021/01/17 12:15:46;;;;;;;14.38;9.48;;;3.80;99.90;;;;;;8344758;28;20134;-75
2021/01/17 12:19:47;;;;;;;10.15;6.55;;;3.60;99.90;;;;;;8361237;28;20450;-76
2021/01/17 12:23:48;;;;;;;10.85;6.97;;;3.30;99.90;;;;;;8359935;28;20551;-73
2021/01/17 12:27:48;;;;;;;10.55;7.18;;;3.30;99.90;;;;;;8357235;28;20028;-73
2021/01/17 12:31:50;;;;;;;15.73;10.20;;;3.10;99.90;;;;;;8358745;28;20391;-73
2021/01/17 12:35:51;;;;;;;11.45;7.53;;;2.90;99.90;;;;;;8360067;28;20470;-73
2021/01/17 12:39:52;;;;;;;9.80;6.40;;;3.10;99.90;;;;;;8359514;28;20028;-73
2021/01/17 12:43:53;;;;;;;10.43;6.32;;;3.50;99.90;;;;;;8359392;28;20438;-76
2021/01/17 12:47:53;;;;;;;8.63;5.35;;;3.50;99.90;;;;;;8362060;28;20025;-75
2021/01/17 12:51:54;;;;;;;17.00;9.63;;;3.60;99.90;;;;;;8361689;28;20056;-76
2021/01/17 12:55:55;;;;;;;11.38;6.70;;;3.60;99.90;;;;;;8360620;28;20021;-75
2021/01/17 12:59:55;;;;;;;9.75;6.35;;;3.60;99.90;;;;;;8360571;28;20017;-76
2021/01/17 13:03:56;;;;;;;10.73;6.78;;;3.60;99.90;;;;;;8362483;28;20040;-77
2021/01/17 13:07:56;;;;;;;11.65;7.47;;;3.40;99.90;;;;;;8358115;28;20032;-74
2021/01/17 13:12:06;;;;;;;11.00;6.53;;;3.30;99.90;;;;;;8367432;28;20044;-74
2021/01/17 13:16:12;;;;;;;9.68;6.13;;;3.30;99.90;;;;;;8357090;28;20082;-74
2021/01/17 13:20:13;;;;;;;10.98;6.57;;;3.30;99.90;;;;;;8356222;28;20017;-75
2021/01/17 13:24:14;;;;;;;12.27;7.60;;;3.30;99.90;;;;;;8365982;28;20104;-74
2021/01/17 13:28:14;;;;;;;11.43;7.07;;;3.40;99.90;;;;;;8357657;28;20025;-74
2021/01/17 13:32:15;;;;;;;12.10;6.90;;;3.50;99.90;;;;;;8357615;28;20071;-74
2021/01/17 13:36:18;;;;;;;10.32;6.65;;;3.70;99.90;;;;;;8357709;28;20037;-74
2021/01/17 13:40:19;;;;;;;16.10;9.43;;;3.80;99.90;;;;;;8357838;28;20029;-73
2021/01/17 13:44:20;;;;;;;11.40;7.20;;;3.40;99.90;;;;;;8331620;28;20109;-72
2021/01/17 13:48:20;;;;;;;10.32;6.18;;;3.10;99.90;;;;;;8325433;28;20064;-74
2021/01/17 13:52:21;;;;;;;11.35;7.43;;;3.00;99.90;;;;;;8325083;28;20028;-72
2021/01/17 13:56:22;;;;;;;11.80;7.55;;;2.70;99.90;;;;;;8324824;28;20033;-74
2021/01/17 14:00:25;;;;;;;14.82;7.95;;;2.50;99.90;;;;;;8324197;28;20018;-73
2021/01/17 14:04:25;;;;;;;12.48;7.78;;;2.60;99.90;;;;;;8364377;28;20031;-74
2021/01/17 14:08:26;;;;;;;13.20;7.15;;;2.70;99.90;;;;;;8384367;28;20021;-74
2021/01/17 14:12:26;;;;;;;11.70;7.63;;;2.70;99.90;;;;;;8354177;28;20155;-74
2021/01/17 14:16:27;;;;;;;14.68;8.13;;;2.80;99.90;;;;;;8368315;28;20086;-74
2021/01/17 14:20:28;;;;;;;11.40;7.22;;;2.70;99.90;;;;;;8358846;28;20025;-73
2021/01/17 14:24:28;;;;;;;11.38;7.40;;;2.70;99.90;;;;;;8357475;28;20029;-74
2021/01/17 14:28:29;;;;;;;11.73;7.03;;;2.90;99.90;;;;;;8358769;28;20029;-74
2021/01/17 14:32:29;;;;;;;12.05;7.82;;;2.70;99.90;;;;;;8356373;28;20033;-75
2021/01/17 14:36:42;;;;;;;12.85;8.15;;;2.40;99.90;;;;;;8356356;28;20037;-73
2021/01/17 14:40:42;;;;;;;15.30;8.27;;;2.30;99.90;;;;;;8357226;28;20021;-74
2021/01/17 14:44:43;;;;;;;13.50;7.72;;;2.30;99.90;;;;;;8356177;28;20111;-74
2021/01/17 14:48:44;;;;;;;11.57;7.95;;;2.50;99.90;;;;;;8356957;28;20542;-74
2021/01/17 14:52:48;;;;;;;12.68;8.20;;;2.70;99.90;;;;;;8355555;28;20032;-73
2021/01/17 14:56:52;;;;;;;12.25;7.60;;;3.10;99.90;;;;;;8354789;28;20036;-73
2021/01/17 15:00:52;;;;;;;13.65;8.35;;;2.90;99.90;;;;;;8353123;28;20096;-72
2021/01/17 15:04:53;;;;;;;13.60;7.40;;;2.90;99.90;;;;;;8355891;28;20024;-72
2021/01/17 15:08:54;;;;;;;13.82;7.95;;;2.70;99.90;;;;;;8352861;28;20039;-71
2021/01/17 15:12:54;;;;;;;13.32;8.73;;;2.60;99.90;;;;;;8352512;28;20024;-71
2021/01/17 15:16:55;;;;;;;14.45;8.48;;;2.60;99.90;;;;;;8355851;28;20399;-70
2021/01/17 15:20:59;;;;;;;13.40;8.00;;;2.40;99.90;;;;;;8353164;28;20017;-70
2021/01/17 15:25:00;;;;;;;13.20;8.48;;;2.30;99.90;;;;;;8355142;28;20021;-70
2021/01/17 15:29:00;;;;;;;13.68;8.15;;;2.20;99.90;;;;;;8357082;28;20514;-73
2021/01/17 15:33:01;;;;;;;14.43;8.73;;;1.80;99.90;;;;;;8359493;28;20025;-73
2021/01/17 15:37:01;;;;;;;16.98;9.80;;;1.70;99.90;;;;;;8364517;28;20060;-73
2021/01/17 15:41:02;;;;;;;13.80;8.68;;;1.50;99.90;;;;;;8356955;28;20025;-73
2021/01/17 15:45:04;;;;;;;14.82;9.05;;;1.60;99.90;;;;;;8355701;28;20025;-73
2021/01/17 15:49:04;;;;;;;17.95;12.93;;;1.50;99.90;;;;;;8358023;28;20025;-73
2021/01/17 15:53:05;;;;;;;17.33;9.95;;;1.70;99.90;;;;;;8358629;28;20107;-74
2021/01/17 15:57:05;;;;;;;12.07;8.18;;;1.50;99.90;;;;;;8357996;28;20033;-73
2021/01/17 16:01:06;;;;;;;27.35;18.30;;;1.30;99.90;;;;;;8357388;28;20118;-73
2021/01/17 16:05:07;;;;;;;16.55;10.63;;;1.30;99.90;;;;;;8359175;28;20029;-73
2021/01/17 16:09:08;;;;;;;13.38;8.35;;;1.30;99.90;;;;;;8358205;28;20055;-74
2021/01/17 16:13:08;;;;;;;16.08;10.07;;;1.30;99.90;;;;;;8356904;28;20037;-72
2021/01/17 16:17:09;;;;;;;13.45;8.13;;;1.20;99.90;;;;;;8356313;28;20025;-72
2021/01/17 16:21:10;;;;;;;16.40;9.93;;;1.20;99.90;;;;;;8355493;28;20028;-73
2021/01/17 16:25:11;;;;;;;13.90;8.98;;;1.10;99.90;;;;;;8357327;28;20025;-74
2021/01/17 16:29:12;;;;;;;26.77;14.88;;;1.10;99.90;;;;;;8358452;28;20032;-74
2021/01/17 16:33:13;;;;;;;35.00;20.83;;;1.10;99.90;;;;;;8355823;28;20079;-73
2021/01/17 16:37:13;;;;;;;20.25;12.43;;;1.20;99.90;;;;;;8351995;28;20075;-69
2021/01/17 16:41:15;;;;;;;16.42;9.88;;;1.20;99.90;;;;;;8349737;28;20185;-72
2021/01/17 16:45:18;;;;;;;16.27;10.00;;;1.20;99.90;;;;;;8354191;28;20028;-71
2021/01/17 16:49:19;;;;;;;17.75;10.40;;;1.20;99.90;;;;;;8351393;28;20507;-72
2021/01/17 16:53:20;;;;;;;17.02;9.80;;;1.40;99.90;;;;;;8352809;28;20028;-71
2021/01/17 16:57:20;;;;;;;14.90;10.50;;;1.30;99.90;;;;;;8355525;28;20131;-71
2021/01/17 17:01:21;;;;;;;12.40;8.77;;;1.30;99.90;;;;;;8354172;28;20651;-71
2021/01/17 17:05:22;;;;;;;12.10;8.27;;;1.40;99.90;;;;;;8356057;28;20025;-69
2021/01/17 17:09:22;;;;;;;14.00;8.77;;;1.40;99.90;;;;;;8354408;28;20037;-70
2021/01/17 17:13:23;;;;;;;14.15;9.63;;;1.30;99.90;;;;;;8354358;28;20021;-70
2021/01/17 17:17:23;;;;;;;13.68;9.50;;;1.30;99.90;;;;;;8353920;28;20114;-71
2021/01/17 17:21:30;;;;;;;13.18;8.85;;;1.20;99.90;;;;;;8354873;28;20021;-72
2021/01/17 17:25:31;;;;;;;14.80;9.35;;;1.30;99.90;;;;;;8350703;28;20163;-71
2021/01/17 17:29:31;;;;;;;12.57;8.15;;;1.40;99.90;;;;;;8355073;28;20368;-72
2021/01/17 17:33:32;;;;;;;11.30;7.93;;;1.20;99.90;;;;;;8355176;28;20037;-71
2021/01/17 17:37:36;;;;;;;16.63;9.43;;;1.20;99.90;;;;;;8357930;28;20082;-69
2021/01/17 17:41:37;;;;;;;16.08;9.60;;;1.30;99.90;;;;;;8359466;28;20028;-72
2021/01/17 17:45:37;;;;;;;9.70;7.35;;;1.30;99.90;;;;;;8357657;28;20013;-71
2021/01/17 17:49:38;;;;;;;10.25;7.28;;;1.30;99.90;;;;;;8371912;28;20040;-70
2021/01/17 17:53:39;;;;;;;13.68;9.90;;;1.40;99.90;;;;;;8347550;28;20033;-70
2021/01/17 17:57:39;;;;;;;27.42;15.45;;;1.60;99.90;;;;;;8346704;28;20029;-70
2021/01/17 18:01:41;;;;;;;15.52;9.73;;;1.50;99.90;;;;;;8343853;28;20043;-71
2021/01/17 18:05:42;;;;;;;16.27;9.27;;;1.50;99.90;;;;;;8343829;28;20035;-70
2021/01/17 18:09:43;;;;;;;17.52;10.05;;;1.30;99.90;;;;;;8344335;28;21463;-71
2021/01/17 18:13:43;;;;;;;12.00;8.38;;;1.40;99.90;;;;;;8346926;28;21139;-69
2021/01/17 18:17:48;;;;;;;11.98;7.55;;;1.40;99.90;;;;;;8344709;28;20024;-70
2021/01/17 18:21:49;;;;;;;13.15;9.07;;;1.40;99.90;;;;;;8346046;28;20037;-72
2021/01/17 18:25:51;;;;;;;12.27;8.30;;;1.40;99.90;;;;;;8344435;28;20761;-70
2021/01/17 18:29:51;;;;;;;9.52;6.72;;;1.50;99.90;;;;;;8344650;28;20078;-72
2021/01/17 18:33:52;;;;;;;10.80;7.43;;;1.50;99.90;;;;;;8347604;28;21354;-69
2021/01/17 18:37:52;;;;;;;9.65;7.40;;;1.40;99.90;;;;;;8350155;28;20036;-73
2021/01/17 18:41:56;;;;;;;11.15;7.40;;;1.50;99.90;;;;;;8348647;28;20021;-74
2021/01/17 18:45:57;;;;;;;11.82;6.85;;;1.50;99.90;;;;;;8350227;28;20088;-73
2021/01/17 18:49:59;;;;;;;9.13;6.72;;;1.60;99.90;;;;;;8350446;28;20021;-73
2021/01/17 18:54:00;;;;;;;10.68;6.88;;;1.40;99.90;;;;;;8349536;28;20036;-73
2021/01/17 18:58:00;;;;;;;8.63;6.85;;;1.40;99.90;;;;;;8352572;28;20021;-73
2021/01/17 19:02:01;;;;;;;9.32;6.72;;;1.60;99.90;;;;;;8346346;28;20026;-74
2021/01/17 19:06:02;;;;;;;8.60;6.82;;;1.60;99.90;;;;;;8356334;28;20499;-72
2021/01/17 19:10:03;;;;;;;10.43;7.25;;;1.60;99.90;;;;;;8355233;28;20028;-73
2021/01/17 19:14:05;;;;;;;11.90;8.43;;;1.40;99.90;;;;;;8355942;28;20025;-73
2021/01/17 19:18:08;;;;;;;15.13;9.38;;;1.50;99.90;;;;;;8357865;28;20032;-74
2021/01/17 19:22:09;;;;;;;13.25;8.55;;;1.40;99.90;;;;;;8352280;28;20029;-72
2021/01/17 19:26:11;;;;;;;7.93;5.40;;;1.50;99.90;;;;;;8347681;28;20480;-72
2021/01/17 19:30:12;;;;;;;27.05;13.63;;;1.60;99.90;;;;;;8348163;28;20029;-72
2021/01/17 19:34:12;;;;;;;14.93;10.48;;;1.50;99.90;;;;;;8351281;28;20657;-73
2021/01/17 19:38:13;;;;;;;9.48;7.32;;;1.50;99.90;;;;;;8351828;28;20075;-73
2021/01/17 19:42:14;;;;;;;10.68;7.22;;;1.50;99.90;;;;;;8350918;28;20025;-73
2021/01/17 19:46:17;;;;;;;9.15;6.40;;;1.50;99.90;;;;;;8352374;28;20022;-72
2021/01/17 19:50:17;;;;;;;8.68;6.70;;;1.60;99.90;;;;;;8350510;28;20479;-71
2021/01/17 19:54:19;;;;;;;10.00;6.80;;;1.60;99.90;;;;;;8343513;28;20017;-73
2021/01/17 19:58:20;;;;;;;8.77;5.85;;;1.60;99.90;;;;;;8357360;28;20750;-72
2021/01/17 20:02:20;;;;;;;26.02;13.90;;;1.50;99.90;;;;;;8354653;28;20055;-72
2021/01/17 20:06:28;;;;;;;8.00;6.38;;;1.50;99.90;;;;;;8356622;28;20029;-73
2021/01/17 20:10:29;;;;;;;9.25;7.20;;;1.50;99.90;;;;;;8356195;28;20033;-75
2021/01/17 20:14:30;;;;;;;7.93;6.13;;;1.40;99.90;;;;;;8356564;28;20052;-73
2021/01/17 20:18:30;;;;;;;7.20;5.00;;;1.50;99.90;;;;;;8360166;28;20040;-73
2021/01/17 20:22:31;;;;;;;6.85;5.35;;;1.60;99.90;;;;;;8356959;28;20025;-72
2021/01/17 20:26:37;;;;;;;7.82;5.00;;;1.50;99.90;;;;;;8356279;28;20021;-73
2021/01/17 20:30:38;;;;;;;5.75;4.65;;;1.40;99.90;;;;;;8354823;28;20096;-73
2021/01/17 20:34:38;;;;;;;7.82;5.00;;;1.40;99.90;;;;;;8355817;28;20028;-73
2021/01/17 20:38:39;;;;;;;6.72;4.55;;;1.40;99.90;;;;;;8354829;28;20029;-73
2021/01/17 20:42:39;;;;;;;8.02;4.47;;;1.30;99.90;;;;;;8353981;28;20021;-73
2021/01/17 20:46:40;;;;;;;6.93;4.70;;;1.40;99.90;;;;;;8356812;28;20028;-73
2021/01/17 20:50:41;;;;;;;6.65;3.78;;;1.40;99.90;;;;;;8354429;28;20017;-73
2021/01/17 20:54:41;;;;;;;6.20;4.57;;;1.40;99.90;;;;;;8355488;28;20029;-73